sensor_id;sensor_type;location;lat;lon;timestamp;P1;durP1;ratioP1;P2;durP2;ratioP2
81679;SDS011;74989;52.210;5.148;2024-03-23T00:51:20;37.40;;;9.88;;
81679;SDS011;74989;52.210;5.148;2024-03-23T00:56:13;38.17;;;10.57;;
81679;SDS011;74989;52.210;5.148;2024-03-23T00:58:40;35.40;;;10.55;;
81679;SDS011;74989;52.210;5.148;2024-03-23T01:01:06;34.70;;;9.40;;
81679;SDS011;74989;52.210;5.148;2024-03-23T01:03:32;27.58;;;9.18;;
81679;SDS011;74989;52.210;5.148;2024-03-23T01:05:59;32.40;;;8.17;;
81679;SDS011;74989;52.210;5.148;2024-03-23T01:08:27;46.40;;;8.43;;
81679;SDS011;74989;52.210;5.148;2024-03-23T01:10:56;30.77;;;8.15;;
81679;SDS011;74989;52.210;5.148;2024-03-23T01:13:23;24.10;;;8.55;;
81679;SDS011;74989;52.210;5.148;2024-03-23T01:15:49;37.23;;;8.50;;
81679;SDS011;74989;52.210;5.148;2024-03-23T01:18:16;29.85;;;7.88;;
81679;SDS011;74989;52.210;5.148;2024-03-23T01:20:43;25.20;;;8.23;;
81679;SDS011;74989;52.210;5.148;2024-03-23T01:23:09;34.08;;;7.90;;
81679;SDS011;74989;52.210;5.148;2024-03-23T01:25:36;35.67;;;9.23;;
81679;SDS011;74989;52.210;5.148;2024-03-23T01:28:03;37.05;;;9.15;;
81679;SDS011;74989;52.210;5.148;2024-03-23T01:30:29;30.08;;;9.32;;
81679;SDS011;74989;52.210;5.148;2024-03-23T01:32:56;38.63;;;9.75;;
81679;SDS011;74989;52.210;5.148;2024-03-23T01:35:22;36.60;;;8.63;;
81679;SDS011;74989;52.210;5.148;2024-03-23T01:37:49;40.03;;;10.63;;
81679;SDS011;74989;52.210;5.148;2024-03-23T01:40:17;34.77;;;8.77;;
81679;SDS011;74989;52.210;5.148;2024-03-23T01:42:56;39.50;;;9.57;;
81679;SDS011;74989;52.210;5.148;2024-03-23T01:45:21;36.53;;;9.45;;
81679;SDS011;74989;52.210;5.148;2024-03-23T01:47:48;31.60;;;9.73;;
81679;SDS011;74989;52.210;5.148;2024-03-23T01:50:14;37.80;;;10.63;;
81679;SDS011;74989;52.210;5.148;2024-03-23T01:52:41;36.17;;;9.93;;
81679;SDS011;74989;52.210;5.148;2024-03-23T01:55:07;36.10;;;9.73;;
81679;SDS011;74989;52.210;5.148;2024-03-23T01:57:35;43.58;;;9.10;;
81679;SDS011;74989;52.210;5.148;2024-03-23T02:00:02;32.27;;;9.37;;
81679;SDS011;74989;52.210;5.148;2024-03-23T02:02:40;34.88;;;9.05;;
81679;SDS011;74989;52.210;5.148;2024-03-23T02:05:07;23.13;;;7.15;;
81679;SDS011;74989;52.210;5.148;2024-03-23T02:07:34;32.65;;;8.18;;
81679;SDS011;74989;52.210;5.148;2024-03-23T02:10:00;42.67;;;7.97;;
81679;SDS011;74989;52.210;5.148;2024-03-23T02:12:27;28.80;;;7.43;;
81679;SDS011;74989;52.210;5.148;2024-03-23T02:14:53;31.97;;;8.13;;
81679;SDS011;74989;52.210;5.148;2024-03-23T02:17:21;38.55;;;7.78;;
81679;SDS011;74989;52.210;5.148;2024-03-23T02:19:46;28.30;;;7.88;;
81679;SDS011;74989;52.210;5.148;2024-03-23T02:22:13;28.25;;;7.22;;
81679;SDS011;74989;52.210;5.148;2024-03-23T02:24:42;32.70;;;8.03;;
81679;SDS011;74989;52.210;5.148;2024-03-23T02:27:09;29.90;;;7.75;;
81679;SDS011;74989;52.210;5.148;2024-03-23T02:29:34;28.00;;;6.93;;
81679;SDS011;74989;52.210;5.148;2024-03-23T02:32:01;26.47;;;6.80;;
81679;SDS011;74989;52.210;5.148;2024-03-23T02:34:27;23.70;;;5.75;;
81679;SDS011;74989;52.210;5.148;2024-03-23T02:36:53;28.75;;;6.72;;
81679;SDS011;74989;52.210;5.148;2024-03-23T02:39:19;21.43;;;6.00;;
81679;SDS011;74989;52.210;5.148;2024-03-23T02:41:47;25.98;;;5.97;;
81679;SDS011;74989;52.210;5.148;2024-03-23T02:44:13;22.10;;;6.03;;
81679;SDS011;74989;52.210;5.148;2024-03-23T02:46:40;33.03;;;6.40;;
81679;SDS011;74989;52.210;5.148;2024-03-23T02:49:06;22.50;;;5.20;;
81679;SDS011;74989;52.210;5.148;2024-03-23T02:51:33;27.38;;;5.40;;
81679;SDS011;74989;52.210;5.148;2024-03-23T02:53:58;24.57;;;5.07;;
81679;SDS011;74989;52.210;5.148;2024-03-23T02:56:25;24.27;;;4.85;;
81679;SDS011;74989;52.210;5.148;2024-03-23T02:58:52;25.65;;;5.50;;
81679;SDS011;74989;52.210;5.148;2024-03-23T03:01:19;25.33;;;5.33;;
81679;SDS011;74989;52.210;5.148;2024-03-23T03:03:45;24.52;;;5.47;;
81679;SDS011;74989;52.210;5.148;2024-03-23T03:06:11;19.67;;;4.30;;
81679;SDS011;74989;52.210;5.148;2024-03-23T03:08:37;24.73;;;5.67;;
81679;SDS011;74989;52.210;5.148;2024-03-23T03:11:04;25.38;;;5.43;;
81679;SDS011;74989;52.210;5.148;2024-03-23T03:13:30;21.97;;;5.23;;
81679;SDS011;74989;52.210;5.148;2024-03-23T03:15:58;23.10;;;5.05;;
81679;SDS011;74989;52.210;5.148;2024-03-23T03:18:23;26.25;;;5.72;;
81679;SDS011;74989;52.210;5.148;2024-03-23T03:20:53;20.60;;;4.85;;
81679;SDS011;74989;52.210;5.148;2024-03-23T03:23:19;19.38;;;4.97;;
81679;SDS011;74989;52.210;5.148;2024-03-23T03:25:46;20.93;;;4.70;;
81679;SDS011;74989;52.210;5.148;2024-03-23T03:28:11;18.95;;;5.43;;
81679;SDS011;74989;52.210;5.148;2024-03-23T03:30:38;29.80;;;5.85;;
81679;SDS011;74989;52.210;5.148;2024-03-23T03:33:05;18.23;;;5.03;;
81679;SDS011;74989;52.210;5.148;2024-03-23T03:35:32;26.30;;;4.20;;
81679;SDS011;74989;52.210;5.148;2024-03-23T03:37:58;21.70;;;4.10;;
81679;SDS011;74989;52.210;5.148;2024-03-23T03:40:24;20.02;;;4.70;;
81679;SDS011;74989;52.210;5.148;2024-03-23T03:42:50;21.92;;;4.93;;
81679;SDS011;74989;52.210;5.148;2024-03-23T03:45:17;22.35;;;4.82;;
81679;SDS011;74989;52.210;5.148;2024-03-23T03:47:42;20.40;;;4.27;;
81679;SDS011;74989;52.210;5.148;2024-03-23T03:50:10;16.33;;;4.50;;
81679;SDS011;74989;52.210;5.148;2024-03-23T03:52:36;18.88;;;4.72;;
81679;SDS011;74989;52.210;5.148;2024-03-23T03:55:03;19.00;;;4.38;;
81679;SDS011;74989;52.210;5.148;2024-03-23T03:57:36;22.10;;;4.23;;
81679;SDS011;74989;52.210;5.148;2024-03-23T04:00:03;24.40;;;4.53;;
81679;SDS011;74989;52.210;5.148;2024-03-23T04:02:29;28.23;;;4.32;;
81679;SDS011;74989;52.210;5.148;2024-03-23T04:04:56;16.60;;;4.28;;
81679;SDS011;74989;52.210;5.148;2024-03-23T04:07:23;13.20;;;3.83;;
81679;SDS011;74989;52.210;5.148;2024-03-23T04:09:50;16.02;;;3.92;;
81679;SDS011;74989;52.210;5.148;2024-03-23T04:12:16;18.73;;;4.15;;
81679;SDS011;74989;52.210;5.148;2024-03-23T04:14:43;12.48;;;3.25;;
81679;SDS011;74989;52.210;5.148;2024-03-23T04:17:08;19.48;;;3.63;;
81679;SDS011;74989;52.210;5.148;2024-03-23T04:19:35;16.67;;;3.47;;
81679;SDS011;74989;52.210;5.148;2024-03-23T04:22:01;14.70;;;3.38;;
81679;SDS011;74989;52.210;5.148;2024-03-23T04:24:30;14.88;;;3.20;;
81679;SDS011;74989;52.210;5.148;2024-03-23T04:26:55;15.63;;;3.72;;
81679;SDS011;74989;52.210;5.148;2024-03-23T04:29:22;18.30;;;3.70;;
81679;SDS011;74989;52.210;5.148;2024-03-23T04:31:48;16.70;;;3.83;;
81679;SDS011;74989;52.210;5.148;2024-03-23T04:34:15;15.25;;;4.07;;
81679;SDS011;74989;52.210;5.148;2024-03-23T04:36:40;17.10;;;3.70;;
81679;SDS011;74989;52.210;5.148;2024-03-23T04:39:07;13.07;;;3.25;;
81679;SDS011;74989;52.210;5.148;2024-03-23T04:41:37;18.10;;;3.83;;
81679;SDS011;74989;52.210;5.148;2024-03-23T04:44:04;20.80;;;3.83;;
81679;SDS011;74989;52.210;5.148;2024-03-23T04:46:30;16.85;;;3.22;;
81679;SDS011;74989;52.210;5.148;2024-03-23T04:48:56;17.17;;;4.05;;
81679;SDS011;74989;52.210;5.148;2024-03-23T04:51:23;15.50;;;3.80;;
81679;SDS011;74989;52.210;5.148;2024-03-23T04:53:50;15.52;;;3.85;;
81679;SDS011;74989;52.210;5.148;2024-03-23T04:56:17;20.25;;;3.70;;
81679;SDS011;74989;52.210;5.148;2024-03-23T04:58:44;16.03;;;3.23;;
81679;SDS011;74989;52.210;5.148;2024-03-23T05:01:11;19.15;;;4.00;;
81679;SDS011;74989;52.210;5.148;2024-03-23T05:03:37;17.05;;;3.63;;
81679;SDS011;74989;52.210;5.148;2024-03-23T05:06:04;12.07;;;3.50;;
81679;SDS011;74989;52.210;5.148;2024-03-23T05:08:30;15.45;;;3.88;;
81679;SDS011;74989;52.210;5.148;2024-03-23T05:10:57;13.03;;;3.30;;
81679;SDS011;74989;52.210;5.148;2024-03-23T05:13:23;13.90;;;3.78;;
81679;SDS011;74989;52.210;5.148;2024-03-23T05:15:52;22.33;;;4.15;;
81679;SDS011;74989;52.210;5.148;2024-03-23T05:18:18;17.67;;;3.22;;
81679;SDS011;74989;52.210;5.148;2024-03-23T05:20:45;18.43;;;3.90;;
81679;SDS011;74989;52.210;5.148;2024-03-23T05:23:11;14.30;;;2.72;;
81679;SDS011;74989;52.210;5.148;2024-03-23T05:25:37;14.18;;;3.60;;
81679;SDS011;74989;52.210;5.148;2024-03-23T05:28:03;11.50;;;3.90;;
81679;SDS011;74989;52.210;5.148;2024-03-23T05:30:30;10.18;;;3.78;;
81679;SDS011;74989;52.210;5.148;2024-03-23T05:32:57;14.37;;;3.80;;
81679;SDS011;74989;52.210;5.148;2024-03-23T05:35:24;10.20;;;3.05;;
81679;SDS011;74989;52.210;5.148;2024-03-23T05:37:49;10.52;;;3.10;;
81679;SDS011;74989;52.210;5.148;2024-03-23T05:40:16;8.10;;;2.83;;
81679;SDS011;74989;52.210;5.148;2024-03-23T05:42:42;12.48;;;2.92;;
81679;SDS011;74989;52.210;5.148;2024-03-23T05:45:08;9.05;;;3.25;;
81679;SDS011;74989;52.210;5.148;2024-03-23T05:47:34;9.73;;;3.63;;
81679;SDS011;74989;52.210;5.148;2024-03-23T05:50:02;9.05;;;3.25;;
81679;SDS011;74989;52.210;5.148;2024-03-23T05:52:28;13.70;;;3.78;;
81679;SDS011;74989;52.210;5.148;2024-03-23T05:54:55;15.83;;;3.20;;
81679;SDS011;74989;52.210;5.148;2024-03-23T05:57:21;11.38;;;3.13;;
81679;SDS011;74989;52.210;5.148;2024-03-23T05:59:47;12.30;;;3.20;;
81679;SDS011;74989;52.210;5.148;2024-03-23T06:02:13;19.07;;;4.17;;
81679;SDS011;74989;52.210;5.148;2024-03-23T06:04:40;16.35;;;3.15;;
81679;SDS011;74989;52.210;5.148;2024-03-23T06:07:07;14.15;;;3.50;;
81679;SDS011;74989;52.210;5.148;2024-03-23T06:09:38;13.73;;;2.57;;
81679;SDS011;74989;52.210;5.148;2024-03-23T06:12:04;13.38;;;3.45;;
81679;SDS011;74989;52.210;5.148;2024-03-23T06:14:31;13.13;;;3.72;;
81679;SDS011;74989;52.210;5.148;2024-03-23T06:16:58;16.03;;;3.93;;
81679;SDS011;74989;52.210;5.148;2024-03-23T06:19:25;14.43;;;3.40;;
81679;SDS011;74989;52.210;5.148;2024-03-23T06:21:52;16.20;;;3.53;;
81679;SDS011;74989;52.210;5.148;2024-03-23T06:24:20;18.95;;;3.13;;
81679;SDS011;74989;52.210;5.148;2024-03-23T06:26:46;14.07;;;4.22;;
81679;SDS011;74989;52.210;5.148;2024-03-23T06:29:13;13.13;;;3.37;;
81679;SDS011;74989;52.210;5.148;2024-03-23T06:31:38;20.33;;;3.58;;
81679;SDS011;74989;52.210;5.148;2024-03-23T06:34:05;14.40;;;2.78;;
81679;SDS011;74989;52.210;5.148;2024-03-23T06:36:31;11.53;;;3.50;;
81679;SDS011;74989;52.210;5.148;2024-03-23T06:38:58;18.80;;;3.50;;
81679;SDS011;74989;52.210;5.148;2024-03-23T06:41:25;14.63;;;3.47;;
81679;SDS011;74989;52.210;5.148;2024-03-23T06:43:52;17.10;;;2.80;;
81679;SDS011;74989;52.210;5.148;2024-03-23T06:46:22;13.68;;;2.55;;
81679;SDS011;74989;52.210;5.148;2024-03-23T06:48:47;15.52;;;3.13;;
81679;SDS011;74989;52.210;5.148;2024-03-23T06:51:14;11.85;;;2.70;;
81679;SDS011;74989;52.210;5.148;2024-03-23T06:53:40;20.53;;;3.57;;
81679;SDS011;74989;52.210;5.148;2024-03-23T06:56:06;14.88;;;3.47;;
81679;SDS011;74989;52.210;5.148;2024-03-23T06:58:33;19.80;;;3.78;;
81679;SDS011;74989;52.210;5.148;2024-03-23T07:01:00;18.50;;;3.67;;
81679;SDS011;74989;52.210;5.148;2024-03-23T07:03:26;13.75;;;3.53;;
81679;SDS011;74989;52.210;5.148;2024-03-23T07:05:52;13.73;;;3.60;;
81679;SDS011;74989;52.210;5.148;2024-03-23T07:08:22;10.93;;;2.97;;
81679;SDS011;74989;52.210;5.148;2024-03-23T07:10:49;13.20;;;3.40;;
81679;SDS011;74989;52.210;5.148;2024-03-23T07:13:15;12.25;;;3.30;;
81679;SDS011;74989;52.210;5.148;2024-03-23T07:15:43;16.07;;;3.20;;
81679;SDS011;74989;52.210;5.148;2024-03-23T07:18:16;14.70;;;4.07;;
81679;SDS011;74989;52.210;5.148;2024-03-23T07:20:45;16.15;;;3.75;;
81679;SDS011;74989;52.210;5.148;2024-03-23T07:23:17;21.38;;;3.60;;
81679;SDS011;74989;52.210;5.148;2024-03-23T07:25:44;19.85;;;3.47;;
81679;SDS011;74989;52.210;5.148;2024-03-23T07:28:10;10.37;;;2.87;;
81679;SDS011;74989;52.210;5.148;2024-03-23T07:30:36;7.22;;;2.58;;
81679;SDS011;74989;52.210;5.148;2024-03-23T07:33:04;11.65;;;2.90;;
81679;SDS011;74989;52.210;5.148;2024-03-23T07:35:31;13.15;;;3.35;;
81679;SDS011;74989;52.210;5.148;2024-03-23T07:37:57;10.32;;;2.63;;
81679;SDS011;74989;52.210;5.148;2024-03-23T07:40:25;8.75;;;2.00;;
81679;SDS011;74989;52.210;5.148;2024-03-23T07:42:51;14.43;;;3.13;;
81679;SDS011;74989;52.210;5.148;2024-03-23T07:45:18;12.30;;;2.78;;
81679;SDS011;74989;52.210;5.148;2024-03-23T07:47:43;11.10;;;2.57;;
81679;SDS011;74989;52.210;5.148;2024-03-23T07:50:12;17.52;;;3.10;;
81679;SDS011;74989;52.210;5.148;2024-03-23T07:52:37;14.88;;;2.90;;
81679;SDS011;74989;52.210;5.148;2024-03-23T07:55:04;13.82;;;2.70;;
81679;SDS011;74989;52.210;5.148;2024-03-23T07:57:31;12.82;;;3.25;;
81679;SDS011;74989;52.210;5.148;2024-03-23T07:59:57;13.57;;;2.83;;
81679;SDS011;74989;52.210;5.148;2024-03-23T08:02:23;11.40;;;2.28;;
81679;SDS011;74989;52.210;5.148;2024-03-23T08:04:50;13.40;;;2.65;;
81679;SDS011;74989;52.210;5.148;2024-03-23T08:07:17;10.53;;;2.57;;
81679;SDS011;74989;52.210;5.148;2024-03-23T08:09:44;7.68;;;2.08;;
81679;SDS011;74989;52.210;5.148;2024-03-23T08:12:09;16.50;;;3.45;;
81679;SDS011;74989;52.210;5.148;2024-03-23T08:14:36;13.73;;;3.20;;
81679;SDS011;74989;52.210;5.148;2024-03-23T08:17:02;11.75;;;2.67;;
81679;SDS011;74989;52.210;5.148;2024-03-23T08:19:28;12.55;;;2.65;;
81679;SDS011;74989;52.210;5.148;2024-03-23T08:21:54;10.83;;;3.27;;
81679;SDS011;74989;52.210;5.148;2024-03-23T08:24:22;12.82;;;3.42;;
81679;SDS011;74989;52.210;5.148;2024-03-23T08:26:48;15.48;;;3.20;;
81679;SDS011;74989;52.210;5.148;2024-03-23T08:29:14;16.07;;;2.83;;
81679;SDS011;74989;52.210;5.148;2024-03-23T08:31:40;10.30;;;2.53;;
81679;SDS011;74989;52.210;5.148;2024-03-23T08:34:06;11.10;;;2.90;;
81679;SDS011;74989;52.210;5.148;2024-03-23T08:36:42;12.17;;;2.47;;
81679;SDS011;74989;52.210;5.148;2024-03-23T08:39:10;18.80;;;2.60;;
81679;SDS011;74989;52.210;5.148;2024-03-23T08:41:37;11.77;;;2.80;;
81679;SDS011;74989;52.210;5.148;2024-03-23T08:44:03;12.60;;;2.17;;
81679;SDS011;74989;52.210;5.148;2024-03-23T08:46:29;11.02;;;2.33;;
81679;SDS011;74989;52.210;5.148;2024-03-23T08:48:56;12.00;;;2.13;;
81679;SDS011;74989;52.210;5.148;2024-03-23T08:51:22;9.97;;;2.80;;
81679;SDS011;74989;52.210;5.148;2024-03-23T08:53:48;9.02;;;2.65;;
81679;SDS011;74989;52.210;5.148;2024-03-23T08:56:14;8.23;;;2.45;;
81679;SDS011;74989;52.210;5.148;2024-03-23T08:58:44;7.03;;;2.42;;
81679;SDS011;74989;52.210;5.148;2024-03-23T09:01:11;10.93;;;2.83;;
81679;SDS011;74989;52.210;5.148;2024-03-23T09:03:40;8.68;;;2.20;;
81679;SDS011;74989;52.210;5.148;2024-03-23T09:06:06;10.88;;;2.35;;
81679;SDS011;74989;52.210;5.148;2024-03-23T09:08:33;8.98;;;2.58;;
81679;SDS011;74989;52.210;5.148;2024-03-23T09:11:03;12.10;;;2.63;;
81679;SDS011;74989;52.210;5.148;2024-03-23T09:13:32;13.03;;;3.13;;
81679;SDS011;74989;52.210;5.148;2024-03-23T09:15:59;23.17;;;3.13;;
81679;SDS011;74989;52.210;5.148;2024-03-23T09:18:26;8.70;;;2.20;;
81679;SDS011;74989;52.210;5.148;2024-03-23T09:20:51;13.60;;;2.88;;
81679;SDS011;74989;52.210;5.148;2024-03-23T09:23:19;12.88;;;2.50;;
81679;SDS011;74989;52.210;5.148;2024-03-23T09:25:45;10.32;;;2.13;;
81679;SDS011;74989;52.210;5.148;2024-03-23T09:28:12;11.20;;;2.63;;
81679;SDS011;74989;52.210;5.148;2024-03-23T09:30:37;12.37;;;2.23;;
81679;SDS011;74989;52.210;5.148;2024-03-23T09:33:08;10.63;;;3.00;;
81679;SDS011;74989;52.210;5.148;2024-03-23T09:35:36;12.75;;;3.25;;
81679;SDS011;74989;52.210;5.148;2024-03-23T09:38:03;14.65;;;3.13;;
81679;SDS011;74989;52.210;5.148;2024-03-23T09:40:29;10.25;;;2.30;;
81679;SDS011;74989;52.210;5.148;2024-03-23T09:42:56;11.67;;;2.60;;
81679;SDS011;74989;52.210;5.148;2024-03-23T09:45:23;12.98;;;2.22;;
81679;SDS011;74989;52.210;5.148;2024-03-23T09:47:53;14.38;;;2.67;;
81679;SDS011;74989;52.210;5.148;2024-03-23T09:50:22;11.50;;;3.20;;
81679;SDS011;74989;52.210;5.148;2024-03-23T09:52:48;17.52;;;2.72;;
81679;SDS011;74989;52.210;5.148;2024-03-23T09:55:15;11.65;;;2.65;;
81679;SDS011;74989;52.210;5.148;2024-03-23T09:57:41;17.13;;;2.83;;
81679;SDS011;74989;52.210;5.148;2024-03-23T10:00:08;13.25;;;3.15;;
81679;SDS011;74989;52.210;5.148;2024-03-23T10:02:35;10.63;;;2.57;;
81679;SDS011;74989;52.210;5.148;2024-03-23T10:05:02;15.18;;;2.90;;
81679;SDS011;74989;52.210;5.148;2024-03-23T10:07:29;13.73;;;3.38;;
81679;SDS011;74989;52.210;5.148;2024-03-23T10:09:56;14.70;;;3.03;;
81679;SDS011;74989;52.210;5.148;2024-03-23T10:12:22;13.35;;;3.03;;
81679;SDS011;74989;52.210;5.148;2024-03-23T10:14:50;9.02;;;2.67;;
81679;SDS011;74989;52.210;5.148;2024-03-23T10:17:16;8.75;;;2.50;;
81679;SDS011;74989;52.210;5.148;2024-03-23T10:19:44;14.43;;;2.83;;
81679;SDS011;74989;52.210;5.148;2024-03-23T10:22:10;12.25;;;2.55;;
81679;SDS011;74989;52.210;5.148;2024-03-23T10:24:41;14.18;;;3.10;;
81679;SDS011;74989;52.210;5.148;2024-03-23T10:27:07;16.30;;;2.78;;
81679;SDS011;74989;52.210;5.148;2024-03-23T10:29:33;10.68;;;2.22;;
81679;SDS011;74989;52.210;5.148;2024-03-23T10:32:07;6.80;;;2.47;;
81679;SDS011;74989;52.210;5.148;2024-03-23T10:34:35;10.80;;;1.95;;
81679;SDS011;74989;52.210;5.148;2024-03-23T10:37:01;15.25;;;2.35;;
81679;SDS011;74989;52.210;5.148;2024-03-23T10:39:30;11.40;;;1.97;;
81679;SDS011;74989;52.210;5.148;2024-03-23T10:42:01;10.05;;;2.22;;
81679;SDS011;74989;52.210;5.148;2024-03-23T10:44:27;10.60;;;3.15;;
81679;SDS011;74989;52.210;5.148;2024-03-23T10:46:56;13.82;;;2.35;;
81679;SDS011;74989;52.210;5.148;2024-03-23T10:49:25;11.23;;;2.63;;
81679;SDS011;74989;52.210;5.148;2024-03-23T10:51:54;10.97;;;2.33;;
81679;SDS011;74989;52.210;5.148;2024-03-23T10:54:21;6.50;;;1.83;;
81679;SDS011;74989;52.210;5.148;2024-03-23T10:56:50;15.68;;;2.85;;
81679;SDS011;74989;52.210;5.148;2024-03-23T10:59:20;12.82;;;2.90;;
81679;SDS011;74989;52.210;5.148;2024-03-23T11:01:54;8.82;;;3.08;;
81679;SDS011;74989;52.210;5.148;2024-03-23T11:07:27;12.07;;;2.33;;
81679;SDS011;74989;52.210;5.148;2024-03-23T11:09:54;11.18;;;2.28;;
81679;SDS011;74989;52.210;5.148;2024-03-23T11:12:25;9.25;;;2.47;;
81679;SDS011;74989;52.210;5.148;2024-03-23T11:14:54;18.20;;;2.65;;
81679;SDS011;74989;52.210;5.148;2024-03-23T11:17:24;12.97;;;2.63;;
81679;SDS011;74989;52.210;5.148;2024-03-23T11:19:54;14.48;;;2.47;;
81679;SDS011;74989;52.210;5.148;2024-03-23T11:25:08;10.80;;;3.33;;
81679;SDS011;74989;52.210;5.148;2024-03-23T11:27:42;14.60;;;3.13;;
81679;SDS011;74989;52.210;5.148;2024-03-23T11:30:11;15.23;;;2.53;;
81679;SDS011;74989;52.210;5.148;2024-03-23T11:32:42;11.68;;;2.47;;
81679;SDS011;74989;52.210;5.148;2024-03-23T11:35:09;8.00;;;2.60;;
81679;SDS011;74989;52.210;5.148;2024-03-23T11:37:36;11.60;;;2.85;;
81679;SDS011;74989;52.210;5.148;2024-03-23T11:40:18;10.43;;;2.80;;
81679;SDS011;74989;52.210;5.148;2024-03-23T11:42:45;9.33;;;2.80;;
81679;SDS011;74989;52.210;5.148;2024-03-23T11:45:13;11.00;;;2.78;;
81679;SDS011;74989;52.210;5.148;2024-03-23T11:47:41;13.48;;;3.00;;
81679;SDS011;74989;52.210;5.148;2024-03-23T11:50:07;14.60;;;2.60;;
81679;SDS011;74989;52.210;5.148;2024-03-23T11:52:35;13.88;;;2.90;;
81679;SDS011;74989;52.210;5.148;2024-03-23T11:55:04;16.55;;;3.08;;
81679;SDS011;74989;52.210;5.148;2024-03-23T11:57:33;10.80;;;2.35;;
81679;SDS011;74989;52.210;5.148;2024-03-23T11:59:59;9.57;;;2.70;;
81679;SDS011;74989;52.210;5.148;2024-03-23T12:02:26;11.60;;;2.30;;
81679;SDS011;74989;52.210;5.148;2024-03-23T12:04:52;13.63;;;3.13;;
81679;SDS011;74989;52.210;5.148;2024-03-23T12:07:19;8.60;;;2.95;;
81679;SDS011;74989;52.210;5.148;2024-03-23T12:10:02;9.40;;;2.75;;
81679;SDS011;74989;52.210;5.148;2024-03-23T12:12:31;10.70;;;1.83;;
81679;SDS011;74989;52.210;5.148;2024-03-23T12:15:01;12.23;;;2.22;;
81679;SDS011;74989;52.210;5.148;2024-03-23T12:17:31;8.85;;;2.35;;
81679;SDS011;74989;52.210;5.148;2024-03-23T12:19:58;12.87;;;2.57;;
81679;SDS011;74989;52.210;5.148;2024-03-23T12:22:25;10.13;;;1.83;;
81679;SDS011;74989;52.210;5.148;2024-03-23T12:24:51;8.25;;;2.25;;
81679;SDS011;74989;52.210;5.148;2024-03-23T12:27:18;10.45;;;2.78;;
81679;SDS011;74989;52.210;5.148;2024-03-23T12:29:44;6.93;;;2.30;;
81679;SDS011;74989;52.210;5.148;2024-03-23T12:32:12;10.82;;;3.17;;
81679;SDS011;74989;52.210;5.148;2024-03-23T12:34:39;11.90;;;2.08;;
81679;SDS011;74989;52.210;5.148;2024-03-23T12:37:06;13.02;;;2.50;;
81679;SDS011;74989;52.210;5.148;2024-03-23T12:39:32;7.53;;;2.07;;
81679;SDS011;74989;52.210;5.148;2024-03-23T12:42:02;7.97;;;1.98;;
81679;SDS011;74989;52.210;5.148;2024-03-23T12:44:28;9.10;;;2.17;;
81679;SDS011;74989;52.210;5.148;2024-03-23T12:46:54;8.07;;;1.90;;
81679;SDS011;74989;52.210;5.148;2024-03-23T12:49:20;9.85;;;2.00;;
81679;SDS011;74989;52.210;5.148;2024-03-23T12:51:53;18.70;;;2.20;;
81679;SDS011;74989;52.210;5.148;2024-03-23T12:54:19;10.32;;;2.67;;
81679;SDS011;74989;52.210;5.148;2024-03-23T12:56:46;11.32;;;2.38;;
81679;SDS011;74989;52.210;5.148;2024-03-23T12:59:12;13.20;;;2.45;;
81679;SDS011;74989;52.210;5.148;2024-03-23T13:01:39;10.02;;;2.22;;
81679;SDS011;74989;52.210;5.148;2024-03-23T13:04:05;7.27;;;2.00;;
81679;SDS011;74989;52.210;5.148;2024-03-23T13:06:32;8.75;;;2.40;;
81679;SDS011;74989;52.210;5.148;2024-03-23T13:09:00;8.45;;;2.38;;
81679;SDS011;74989;52.210;5.148;2024-03-23T13:11:28;10.20;;;2.43;;
81679;SDS011;74989;52.210;5.148;2024-03-23T13:13:54;10.30;;;2.05;;
81679;SDS011;74989;52.210;5.148;2024-03-23T13:16:21;10.25;;;2.95;;
81679;SDS011;74989;52.210;5.148;2024-03-23T13:18:46;8.87;;;2.37;;
81679;SDS011;74989;52.210;5.148;2024-03-23T13:21:13;11.35;;;2.22;;
81679;SDS011;74989;52.210;5.148;2024-03-23T13:23:39;14.80;;;2.78;;
81679;SDS011;74989;52.210;5.148;2024-03-23T13:26:08;13.38;;;2.83;;
81679;SDS011;74989;52.210;5.148;2024-03-23T13:28:34;7.80;;;2.80;;
81679;SDS011;74989;52.210;5.148;2024-03-23T13:31:01;9.55;;;2.80;;
81679;SDS011;74989;52.210;5.148;2024-03-23T13:33:29;11.85;;;3.28;;
81679;SDS011;74989;52.210;5.148;2024-03-23T13:35:57;11.90;;;3.47;;
81679;SDS011;74989;52.210;5.148;2024-03-23T13:38:23;11.02;;;3.08;;
81679;SDS011;74989;52.210;5.148;2024-03-23T13:40:51;12.45;;;3.08;;
81679;SDS011;74989;52.210;5.148;2024-03-23T13:43:18;9.55;;;2.55;;
81679;SDS011;74989;52.210;5.148;2024-03-23T13:45:46;16.98;;;3.30;;
81679;SDS011;74989;52.210;5.148;2024-03-23T13:48:12;6.60;;;1.70;;
81679;SDS011;74989;52.210;5.148;2024-03-23T13:50:39;14.13;;;2.15;;
81679;SDS011;74989;52.210;5.148;2024-03-23T13:53:04;10.05;;;2.47;;
81679;SDS011;74989;52.210;5.148;2024-03-23T13:55:31;14.77;;;2.60;;
81679;SDS011;74989;52.210;5.148;2024-03-23T13:57:57;11.55;;;3.28;;
81679;SDS011;74989;52.210;5.148;2024-03-23T14:00:25;7.03;;;2.20;;
81679;SDS011;74989;52.210;5.148;2024-03-23T14:02:51;10.52;;;2.92;;
81679;SDS011;74989;52.210;5.148;2024-03-23T14:05:17;10.93;;;2.43;;
81679;SDS011;74989;52.210;5.148;2024-03-23T14:07:43;12.45;;;2.58;;
81679;SDS011;74989;52.210;5.148;2024-03-23T14:10:10;11.43;;;2.22;;
81679;SDS011;74989;52.210;5.148;2024-03-23T14:12:36;7.30;;;1.80;;
81679;SDS011;74989;52.210;5.148;2024-03-23T14:15:04;13.38;;;2.90;;
81679;SDS011;74989;52.210;5.148;2024-03-23T14:17:32;7.97;;;2.13;;
81679;SDS011;74989;52.210;5.148;2024-03-23T14:19:59;5.82;;;1.73;;
81679;SDS011;74989;52.210;5.148;2024-03-23T14:22:26;7.28;;;1.90;;
81679;SDS011;74989;52.210;5.148;2024-03-23T14:24:53;6.97;;;2.30;;
81679;SDS011;74989;52.210;5.148;2024-03-23T14:27:19;5.05;;;1.65;;
81679;SDS011;74989;52.210;5.148;2024-03-23T14:29:46;5.85;;;1.67;;
81679;SDS011;74989;52.210;5.148;2024-03-23T14:32:12;6.65;;;2.05;;
81679;SDS011;74989;52.210;5.148;2024-03-23T14:34:41;7.03;;;2.00;;
81679;SDS011;74989;52.210;5.148;2024-03-23T14:37:07;9.70;;;2.13;;
81679;SDS011;74989;52.210;5.148;2024-03-23T14:39:33;8.15;;;1.80;;
81679;SDS011;74989;52.210;5.148;2024-03-23T14:41:59;11.00;;;2.20;;
81679;SDS011;74989;52.210;5.148;2024-03-23T14:44:27;15.17;;;3.17;;
81679;SDS011;74989;52.210;5.148;2024-03-23T14:46:53;10.18;;;1.92;;
81679;SDS011;74989;52.210;5.148;2024-03-23T14:49:20;18.75;;;2.72;;
81679;SDS011;74989;52.210;5.148;2024-03-23T14:51:47;11.88;;;2.40;;
81679;SDS011;74989;52.210;5.148;2024-03-23T14:54:14;9.93;;;2.28;;
81679;SDS011;74989;52.210;5.148;2024-03-23T14:56:39;8.00;;;2.22;;
81679;SDS011;74989;52.210;5.148;2024-03-23T14:59:06;18.17;;;3.28;;
81679;SDS011;74989;52.210;5.148;2024-03-23T15:01:33;8.83;;;2.10;;
81679;SDS011;74989;52.210;5.148;2024-03-23T15:03:59;8.00;;;2.03;;
81679;SDS011;74989;52.210;5.148;2024-03-23T15:06:26;8.75;;;1.85;;
81679;SDS011;74989;52.210;5.148;2024-03-23T15:08:53;8.77;;;1.97;;
81679;SDS011;74989;52.210;5.148;2024-03-23T15:11:19;9.95;;;2.17;;
81679;SDS011;74989;52.210;5.148;2024-03-23T15:13:45;13.77;;;3.15;;
81679;SDS011;74989;52.210;5.148;2024-03-23T15:16:16;8.73;;;1.87;;
81679;SDS011;74989;52.210;5.148;2024-03-23T15:18:43;9.70;;;2.38;;
81679;SDS011;74989;52.210;5.148;2024-03-23T15:21:10;12.38;;;2.75;;
81679;SDS011;74989;52.210;5.148;2024-03-23T15:23:36;8.98;;;2.03;;
81679;SDS011;74989;52.210;5.148;2024-03-23T15:26:04;14.23;;;2.90;;
81679;SDS011;74989;52.210;5.148;2024-03-23T15:28:32;16.07;;;3.77;;
81679;SDS011;74989;52.210;5.148;2024-03-23T15:31:06;11.25;;;2.33;;
81679;SDS011;74989;52.210;5.148;2024-03-23T15:33:34;7.55;;;3.10;;